Time;durP1;ratioP1;P1;durP2;ratioP2;P2;SDS_P1;SDS_P2;PMS_P1;PMS_P2;Temp;Humidity;BMP_temperature;BMP_pressure;BME280_temperature;BME280_humidity;BME280_pressure;Samples;Min_cycle;Max_cycle;Signal;HPM_P1;HPM_P2
2023/02/05 00:01:14;;;;;;;4.03;1.92;;;;;;;-2.88;74.72;100897.98;1770903;81;21173;-66
2023/02/05 00:03:44;;;;;;;3.60;2.00;;;;;;;-2.88;74.79;100900.18;1771251;81;21209;-67
2023/02/05 00:06:13;;;;;;;3.05;1.87;;;;;;;-2.84;74.86;100904.00;1741566;81;21209;-66
2023/02/05 00:08:42;;;;;;;4.17;1.67;;;;;;;-2.83;74.92;100911.95;1770942;81;21562;-67
2023/02/05 00:11:13;;;;;;;3.35;2.00;;;;;;;-2.81;75.05;100910.50;1770891;81;21604;-67
2023/02/05 00:13:41;;;;;;;4.58;2.27;;;;;;;-2.78;75.13;100914.33;1770966;81;21257;-66
2023/02/05 00:16:19;;;;;;;2.65;1.70;;;;;;;-2.78;75.13;100911.64;1770909;81;21694;-69
2023/02/05 00:18:50;;;;;;;1.67;1.35;;;;;;;-2.79;75.18;100911.27;1742896;81;21603;-67
2023/02/05 00:21:21;;;;;;;2.92;1.80;;;;;;;-2.80;75.31;100907.72;1771244;81;21130;-66
2023/02/05 00:23:51;;;;;;;2.75;1.70;;;;;;;-2.76;75.45;100912.41;1770963;81;21246;-67
2023/02/05 00:26:19;;;;;;;2.95;1.60;;;;;;;-2.76;75.48;100915.09;1771224;81;21586;-67
2023/02/05 00:28:49;;;;;;;4.78;2.37;;;;;;;-2.74;75.61;100911.83;1771274;81;21169;-66
2023/02/05 00:31:20;;;;;;;5.00;2.30;;;;;;;-2.74;75.66;100915.37;1770944;81;21201;-68
2023/02/05 00:33:49;;;;;;;6.40;2.20;;;;;;;-2.74;75.80;100912.69;1770960;81;21138;-68
2023/02/05 00:36:19;;;;;;;3.98;1.90;;;;;;;-2.71;76.06;100919.19;1771082;81;21142;-67
2023/02/05 00:38:48;;;;;;;3.52;1.98;;;;;;;-2.69;76.14;100912.38;1770928;81;21142;-68
2023/02/05 00:41:17;;;;;;;4.30;2.00;;;;;;;-2.68;76.23;100917.65;1770940;81;21142;-67
2023/02/05 00:43:46;;;;;;;4.30;1.80;;;;;;;-2.69;76.27;100910.56;1771400;81;21170;-68
2023/02/05 00:46:14;;;;;;;2.98;1.70;;;;;;;-2.71;76.39;100915.65;1771087;81;21134;-67
2023/02/05 00:48:44;;;;;;;4.28;1.62;;;;;;;-2.71;76.45;100916.98;1770961;81;21210;-66
2023/02/05 00:51:12;;;;;;;3.42;1.75;;;;;;;-2.74;76.55;100916.71;1770957;81;21565;-67
2023/02/05 00:53:41;;;;;;;2.85;1.52;;;;;;;-2.74;76.60;100920.73;1771303;81;21111;-67
2023/02/05 00:56:10;;;;;;;5.83;2.22;;;;;;;-2.77;76.91;100910.20;1771238;81;21161;-67
2023/02/05 00:58:39;;;;;;;4.55;2.20;;;;;;;-2.78;77.12;100914.33;1770931;81;21134;-66
2023/02/05 01:01:08;;;;;;;3.10;1.87;;;;;;;-2.79;77.24;100912.61;1770901;81;21169;-67
2023/02/05 01:03:38;;;;;;;4.28;2.20;;;;;;;-2.77;77.44;100909.34;1771045;81;21182;-67
2023/02/05 01:06:08;;;;;;;5.12;2.25;;;;;;;-2.74;77.55;100911.83;1771143;81;21529;-67
2023/02/05 01:08:38;;;;;;;3.42;2.08;;;;;;;-2.71;77.61;100910.28;1771088;81;21175;-67
2023/02/05 01:11:09;;;;;;;5.72;3.33;;;;;;;-2.69;77.65;100912.38;1770888;81;21170;-67
2023/02/05 01:13:39;;;;;;;9.50;6.10;;;;;;;-2.69;77.76;100914.59;1771032;81;21224;-67
2023/02/05 01:16:09;;;;;;;5.20;2.98;;;;;;;-2.66;77.91;100909.50;1770642;81;21585;-67
2023/02/05 01:18:38;;;;;;;4.10;2.65;;;;;;;-2.66;78.03;100914.87;1759000;81;21576;-66
2023/02/05 01:21:07;;;;;;;6.17;2.40;;;;;;;-2.65;78.01;100900.50;1758804;81;21213;-67
2023/02/05 01:23:39;;;;;;;4.72;1.95;;;;;;;-2.70;77.97;100902.14;1758772;81;21138;-66
2023/02/05 01:26:08;;;;;;;6.08;2.85;;;;;;;-2.70;78.06;100905.30;1758855;81;21554;-67
2023/02/05 01:28:38;;;;;;;4.80;2.30;;;;;;;-2.73;78.10;100905.50;1758795;81;21147;-67
2023/02/05 01:31:08;;;;;;;4.58;2.12;;;;;;;-2.73;78.23;100908.19;1758755;81;21233;-67
2023/02/05 01:33:37;;;;;;;3.60;1.80;;;;;;;-2.73;78.25;100908.19;1758952;81;21162;-66
2023/02/05 01:36:08;;;;;;;2.90;1.80;;;;;;;-2.71;78.38;100913.83;1758889;81;21590;-68
2023/02/05 01:38:37;;;;;;;2.90;1.80;;;;;;;-2.69;78.37;100913.25;1758808;81;21632;-67
2023/02/05 01:41:08;;;;;;;3.35;1.90;;;;;;;-2.68;78.38;100912.28;1759119;81;21186;-67
2023/02/05 01:43:37;;;;;;;4.17;1.90;;;;;;;-2.64;78.46;100911.60;1758913;81;21569;-67
2023/02/05 01:46:25;;;;;;;4.45;2.02;;;;;;;-2.63;78.39;100909.30;1758849;81;21138;-67
2023/02/05 01:48:55;;;;;;;4.37;2.20;;;;;;;-2.64;78.39;100924.53;1759040;81;21155;-67
2023/02/05 01:51:28;;;;;;;4.28;1.85;;;;;;;-2.71;78.38;100924.55;1759081;81;21134;-65
2023/02/05 01:53:57;;;;;;;4.70;1.98;;;;;;;-2.72;78.59;100921.97;1758882;81;21130;-68
2023/02/05 01:56:31;;;;;;;3.52;1.82;;;;;;;-2.73;78.68;100922.94;1758828;81;21633;-65
2023/02/05 01:59:13;;;;;;;4.33;1.80;;;;;;;-2.69;78.73;100923.11;1758786;81;21582;-67
2023/02/05 02:01:44;;;;;;;3.45;1.95;;;;;;;-2.71;78.74;100919.19;1758924;81;21123;-65
2023/02/05 02:04:18;;;;;;;3.58;2.00;;;;;;;-2.68;78.89;100922.16;1758872;81;21571;-67
2023/02/05 02:06:50;;;;;;;3.00;1.77;;;;;;;-2.67;78.85;100923.39;1654438;85;21138;-67
2023/02/05 02:09:19;;;;;;;3.83;2.00;;;;;;;-2.67;78.86;100917.17;1654320;87;21154;-67
2023/02/05 02:11:48;;;;;;;3.90;1.98;;;;;;;-2.63;78.88;100915.52;1654227;87;21598;-67
2023/02/05 02:14:17;;;;;;;5.17;2.30;;;;;;;-2.65;78.92;100913.91;1654374;87;21298;-67
2023/02/05 02:16:47;;;;;;;3.35;1.87;;;;;;;-2.64;79.03;100914.28;1656362;85;21142;-66
2023/02/05 02:19:37;;;;;;;3.27;1.90;;;;;;;-2.62;79.05;100921.27;1667611;86;21133;-69
2023/02/05 02:22:15;;;;;;;4.45;1.92;;;;;;;-2.62;79.08;100918.59;1635503;87;21161;-66
2023/02/05 02:24:58;;;;;;;4.37;2.40;;;;;;;-2.61;79.04;100915.42;1687042;82;21642;-66
2023/02/05 02:27:51;;;;;;;4.85;2.10;;;;;;;-2.59;79.08;100917.55;1761495;81;21093;-67
2023/02/05 02:30:28;;;;;;;4.10;1.75;;;;;;;-2.59;79.11;100914.39;1761480;81;21149;-67
2023/02/05 02:33:21;;;;;;;2.55;1.57;;;;;;;-2.59;78.98;100910.85;1761441;81;21180;-67
2023/02/05 02:36:13;;;;;;;3.05;1.90;;;;;;;-2.62;78.98;100913.70;1760338;81;21545;-66
2023/02/05 02:39:06;;;;;;;3.67;1.90;;;;;;;-2.62;79.04;100908.34;1761693;81;21122;-66
2023/02/05 02:42:00;;;;;;;5.25;2.15;;;;;;;-2.62;79.14;100912.36;1761318;81;21617;-66
2023/02/05 02:44:55;;;;;;;3.05;1.90;;;;;;;-2.63;79.18;100911.98;1761286;81;21113;-67
2023/02/05 02:47:48;;;;;;;3.37;1.92;;;;;;;-2.64;79.16;100904.90;1760678;81;21576;-67
2023/02/05 02:50:22;;;;;;;2.90;1.98;;;;;;;-2.66;79.16;100911.70;1761303;81;21113;-66
2023/02/05 02:52:51;;;;;;;3.65;1.95;;;;;;;-2.65;79.31;100909.88;1761349;81;21155;-66
2023/02/05 02:55:21;;;;;;;4.58;2.90;;;;;;;-2.62;79.24;100914.56;1761395;81;21160;-68
2023/02/05 02:57:50;;;;;;;3.15;2.17;;;;;;;-2.61;79.15;100918.11;1761364;81;21114;-67
2023/02/05 03:00:24;;;;;;;2.90;1.75;;;;;;;-2.59;79.18;100926.95;1761361;81;21117;-66
2023/02/05 03:02:57;;;;;;;3.40;2.00;;;;;;;-2.57;79.11;100920.52;1761402;81;21161;-66
2023/02/05 03:05:26;;;;;;;3.00;1.98;;;;;;;-2.53;79.06;100932.39;1735827;81;21157;-67
2023/02/05 03:08:03;;;;;;;2.75;1.95;;;;;;;-2.50;78.99;100939.75;1761497;81;21176;-67
2023/02/05 03:10:43;;;;;;;3.08;1.75;;;;;;;-2.52;78.93;100928.26;1761470;81;21561;-67
2023/02/05 03:13:18;;;;;;;2.85;1.82;;;;;;;-2.52;78.87;100932.77;1761415;81;21117;-68
2023/02/05 03:15:49;;;;;;;3.08;1.70;;;;;;;-2.54;78.91;100938.23;1761330;81;21165;-66
2023/02/05 03:18:18;;;;;;;2.95;1.70;;;;;;;-2.52;78.95;100932.77;1759307;81;21607;-67
2023/02/05 03:21:12;;;;;;;3.37;1.90;;;;;;;-2.50;78.92;100939.75;1738987;82;21256;-67
2023/02/05 03:23:41;;;;;;;3.85;1.90;;;;;;;-2.53;78.84;100931.05;1768951;81;21146;-67
2023/02/05 03:26:31;;;;;;;3.40;2.00;;;;;;;-2.56;78.99;100938.33;1739156;82;21223;-67
2023/02/05 03:29:09;;;;;;;3.67;2.08;;;;;;;-2.58;78.82;100930.01;1768332;81;21144;-67
2023/02/05 03:32:00;;;;;;;3.17;1.90;;;;;;;-2.63;78.89;100928.94;1739031;82;21106;-67
2023/02/05 03:34:52;;;;;;;3.50;1.67;;;;;;;-2.59;79.03;100939.02;1768934;81;21116;-68
2023/02/05 03:37:38;;;;;;;3.30;2.02;;;;;;;-2.58;79.05;100930.01;1738779;82;21619;-67
2023/02/05 03:40:39;;;;;;;3.42;2.02;;;;;;;-2.58;79.08;100932.69;1725487;82;21140;-67
2023/02/05 03:43:29;;;;;;;3.35;2.10;;;;;;;-2.58;79.14;100934.89;1774192;81;21117;-66
2023/02/05 03:46:34;;;;;;;4.45;1.60;;;;;;;-2.56;79.15;100942.36;1774033;81;21629;-67
2023/02/05 03:49:38;;;;;;;3.00;1.95;;;;;;;-2.53;79.18;100943.98;1774154;81;21165;-66
2023/02/05 03:52:18;;;;;;;4.70;2.08;;;;;;;-2.52;79.18;100949.72;1774043;81;21106;-67
2023/02/05 03:55:19;;;;;;;4.05;2.08;;;;;;;-2.50;79.10;100951.83;1774501;81;21121;-66
2023/02/05 03:57:59;;;;;;;4.55;2.65;;;;;;;-2.49;78.95;100944.64;1771599;81;21121;-67
2023/02/05 04:00:29;;;;;;;3.55;2.00;;;;;;;-2.51;78.98;100945.22;1773707;81;21576;-66
2023/02/05 04:02:59;;;;;;;3.10;1.77;;;;;;;-2.50;79.11;100951.83;1774335;81;21157;-66
2023/02/05 04:05:31;;;;;;;4.60;2.00;;;;;;;-2.48;79.11;100957.09;1774298;81;21551;-69
2023/02/05 04:08:02;;;;;;;3.08;2.10;;;;;;;-2.48;79.10;100955.27;1774030;81;21575;-68
2023/02/05 04:10:33;;;;;;;6.45;2.00;;;;;;;-2.46;79.11;100956.03;1773857;81;21622;-67
2023/02/05 04:13:04;;;;;;;4.47;2.33;;;;;;;-2.45;79.00;100956.41;1774075;81;21537;-66
2023/02/05 04:15:33;;;;;;;5.33;2.22;;;;;;;-2.44;79.08;100959.47;1774040;81;21855;-67
2023/02/05 04:18:02;;;;;;;4.00;2.00;;;;;;;-2.46;79.06;100958.70;1758316;81;21217;-67
2023/02/05 04:20:32;;;;;;;3.55;2.15;;;;;;;-2.48;79.01;100956.61;1767640;81;21169;-67
2023/02/05 04:23:03;;;;;;;4.03;2.20;;;;;;;-2.47;79.12;100958.81;1767275;81;21122;-66
2023/02/05 04:25:32;;;;;;;3.67;2.17;;;;;;;-2.49;78.95;100954.89;1767182;81;21162;-67
2023/02/05 04:28:04;;;;;;;3.52;1.90;;;;;;;-2.51;79.14;100956.81;1767372;81;21588;-67
2023/02/05 04:30:33;;;;;;;3.87;2.27;;;;;;;-2.51;79.26;100964.86;1767170;81;21107;-66
2023/02/05 04:33:03;;;;;;;3.98;2.20;;;;;;;-2.50;79.38;100958.53;1767170;81;21547;-66
2023/02/05 04:35:33;;;;;;;3.95;2.27;;;;;;;-2.49;79.33;100949.52;1767131;81;21111;-66
2023/02/05 04:38:03;;;;;;;5.15;2.50;;;;;;;-2.47;79.38;100942.23;1767198;81;21163;-67
2023/02/05 04:40:32;;;;;;;5.80;2.70;;;;;;;-2.48;79.37;100935.63;1767254;81;21122;-66
2023/02/05 04:43:01;;;;;;;3.60;2.30;;;;;;;-2.48;79.48;100945.87;1767362;81;21520;-67
2023/02/05 04:45:32;;;;;;;4.20;2.40;;;;;;;-2.47;79.50;100948.08;1767216;81;21558;-66
2023/02/05 04:48:01;;;;;;;4.80;2.65;;;;;;;-2.49;79.52;100953.55;1767226;81;21098;-66
2023/02/05 04:50:31;;;;;;;4.67;3.00;;;;;;;-2.48;79.65;100959.29;1767466;81;21622;-67
2023/02/05 04:53:04;;;;;;;5.28;2.52;;;;;;;-2.48;79.83;100954.41;1767210;81;21178;-67
2023/02/05 04:55:30;;;;;;;8.23;2.70;;;;;;;-2.47;79.94;100958.33;1766916;81;21138;-68
2023/02/05 04:58:04;;;;;;;5.62;2.33;;;;;;;-2.47;79.99;100956.98;1767157;81;21629;-66
2023/02/05 05:00:33;;;;;;;4.12;2.30;;;;;;;-2.42;80.08;100960.70;1767177;81;21606;-66
2023/02/05 05:03:04;;;;;;;4.78;2.67;;;;;;;-2.40;80.06;100959.64;1767288;81;21122;-67
2023/02/05 05:05:35;;;;;;;5.83;2.80;;;;;;;-2.40;79.92;100966.35;1767199;81;21150;-66
2023/02/05 05:08:05;;;;;;;4.37;2.47;;;;;;;-2.43;80.03;100964.35;1767148;81;21147;-67
2023/02/05 05:10:34;;;;;;;5.55;3.20;;;;;;;-2.41;80.16;100965.11;1767386;81;21114;-66
2023/02/05 05:13:02;;;;;;;4.75;2.70;;;;;;;-2.41;80.28;100968.66;1767347;81;21570;-67
2023/02/05 05:15:32;;;;;;;5.65;2.80;;;;;;;-2.38;80.35;100969.80;1767228;81;21102;-66
2023/02/05 05:18:03;;;;;;;5.20;3.00;;;;;;;-2.35;80.34;100965.57;1760559;81;21093;-67
2023/02/05 05:20:31;;;;;;;4.60;2.70;;;;;;;-2.35;80.36;100967.39;1743385;82;21116;-67
2023/02/05 05:23:00;;;;;;;7.15;2.83;;;;;;;-2.33;80.47;100974.38;1743392;82;21124;-67
2023/02/05 05:25:29;;;;;;;6.85;3.15;;;;;;;-2.30;80.38;100982.70;1743803;82;21148;-67
2023/02/05 05:27:58;;;;;;;5.10;2.98;;;;;;;-2.29;80.40;100975.03;1743568;82;21589;-67
2023/02/05 05:30:27;;;;;;;5.12;2.85;;;;;;;-2.27;80.32;100975.80;1743712;82;21187;-68
2023/02/05 05:32:57;;;;;;;6.08;2.65;;;;;;;-2.28;80.31;100978.95;1743621;82;21591;-66
2023/02/05 05:35:26;;;;;;;4.05;2.42;;;;;;;-2.26;80.48;100974.35;1743569;82;21183;-67
2023/02/05 05:37:56;;;;;;;5.62;3.42;;;;;;;-2.23;80.48;100973.28;1743625;82;21543;-67
2023/02/05 05:46:02;;;;;;;6.28;3.02;;;;;;;-2.18;80.47;100983.72;1743574;82;21144;-69
2023/02/05 05:48:32;;;;;;;5.20;2.92;;;;;;;-2.16;80.42;100984.47;1743379;82;21659;-69
2023/02/05 05:51:01;;;;;;;4.90;2.87;;;;;;;-2.16;80.37;100990.70;1743379;82;21188;-68
2023/02/05 05:53:30;;;;;;;5.83;3.00;;;;;;;-2.15;80.37;100992.91;1743237;82;21108;-68
2023/02/05 05:55:59;;;;;;;5.08;3.00;;;;;;;-2.14;80.31;100992.80;1743672;82;21540;-67
2023/02/05 05:58:30;;;;;;;5.12;3.02;;;;;;;-2.15;80.39;100998.28;1743371;82;21120;-68
2023/02/05 06:01:00;;;;;;;5.08;3.10;;;;;;;-2.14;80.54;101000.86;1743533;82;21535;-68
2023/02/05 06:03:29;;;;;;;4.95;2.85;;;;;;;-2.12;80.40;101007.47;1743497;82;21100;-67
2023/02/05 06:06:04;;;;;;;4.70;3.10;;;;;;;-2.16;80.44;101008.63;1743666;82;21152;-67
2023/02/05 06:08:34;;;;;;;4.58;2.55;;;;;;;-2.15;80.60;101009.02;1743579;81;21120;-67
2023/02/05 06:11:08;;;;;;;5.55;3.40;;;;;;;-2.12;80.70;101006.13;1743344;82;21547;-68
2023/02/05 06:13:37;;;;;;;5.20;3.22;;;;;;;-2.10;80.79;101011.77;1743374;82;21649;-67
2023/02/05 06:16:06;;;;;;;5.97;3.45;;;;;;;-2.05;80.84;101010.13;1743540;82;21140;-67
2023/02/05 06:18:34;;;;;;;5.67;3.55;;;;;;;-2.02;80.93;101018.83;1743158;81;21239;-67
2023/02/05 06:21:05;;;;;;;5.03;3.00;;;;;;;-1.98;80.91;101024.86;1743297;82;21586;-67
2023/02/05 06:23:34;;;;;;;5.97;3.27;;;;;;;-2.00;80.88;101019.59;1743406;82;21132;-67
2023/02/05 06:26:04;;;;;;;7.05;3.65;;;;;;;-2.00;80.89;101029.47;1743729;82;21528;-66
2023/02/05 06:28:33;;;;;;;6.85;3.50;;;;;;;-2.01;80.93;101025.06;1743514;82;21644;-67
2023/02/05 06:31:02;;;;;;;5.45;3.00;;;;;;;-1.98;81.04;101039.63;1743477;82;21140;-67
2023/02/05 06:33:31;;;;;;;6.42;3.47;;;;;;;-1.96;81.03;101042.59;1743500;82;21635;-66
2023/02/05 06:36:00;;;;;;;6.90;3.83;;;;;;;-1.93;80.96;101044.24;1743755;82;21622;-67
2023/02/05 06:38:29;;;;;;;7.22;3.70;;;;;;;-1.96;81.11;101038.56;1743850;82;21116;-66
2023/02/05 06:40:58;;;;;;;7.95;3.80;;;;;;;-1.95;81.14;101036.29;1743682;82;21641;-67
2023/02/05 06:43:27;;;;;;;7.25;3.45;;;;;;;-1.95;81.18;101044.83;1743641;82;21132;-66
2023/02/05 06:45:57;;;;;;;7.00;3.40;;;;;;;-1.96;81.33;101048.45;1743409;81;21562;-65
2023/02/05 06:48:27;;;;;;;10.40;4.05;;;;;;;-1.94;81.46;101048.75;1743591;82;21540;-68
2023/02/05 06:50:56;;;;;;;7.55;3.90;;;;;;;-1.97;81.66;101052.09;1743335;81;21148;-67
2023/02/05 06:53:24;;;;;;;6.12;3.58;;;;;;;-1.96;81.87;101053.81;1743707;82;21120;-67
2023/02/05 06:55:56;;;;;;;6.47;3.40;;;;;;;-1.93;82.02;101058.53;1743397;82;21215;-67
2023/02/05 06:58:25;;;;;;;6.37;3.17;;;;;;;-1.91;82.07;101058.43;1743702;82;21092;-68
2023/02/05 07:00:55;;;;;;;6.92;3.37;;;;;;;-1.89;82.00;101056.98;1743337;82;21116;-67
2023/02/05 07:03:23;;;;;;;9.65;3.90;;;;;;;-1.89;81.98;101061.02;1743234;82;21590;-67
2023/02/05 07:05:53;;;;;;;7.10;3.83;;;;;;;-1.90;82.01;101065.52;1743338;82;21562;-67
2023/02/05 07:08:23;;;;;;;6.72;3.62;;;;;;;-1.88;82.14;101060.91;1743694;82;21724;-68
2023/02/05 07:10:52;;;;;;;7.30;4.28;;;;;;;-1.85;82.19;101063.39;1743324;82;21105;-67
2023/02/05 07:13:21;;;;;;;7.92;4.12;;;;;;;-1.84;82.20;101062.43;1743727;82;21148;-68
2023/02/05 07:15:50;;;;;;;7.15;3.98;;;;;;;-1.82;82.28;101060.98;1743739;81;21127;-68
2023/02/05 07:18:19;;;;;;;8.63;4.20;;;;;;;-1.80;82.28;101067.11;1743387;81;21238;-66
2023/02/05 07:20:48;;;;;;;8.28;4.05;;;;;;;-1.81;82.23;101064.91;1743621;81;21163;-66
2023/02/05 07:23:17;;;;;;;7.90;4.12;;;;;;;-1.82;82.24;101073.93;1743540;82;21176;-68
2023/02/05 07:25:46;;;;;;;6.70;4.00;;;;;;;-1.81;82.35;101081.03;1743441;82;21130;-67
2023/02/05 07:28:15;;;;;;;7.12;3.85;;;;;;;-1.76;82.40;101086.09;1743643;82;21552;-69
2023/02/05 07:30:46;;;;;;;8.13;4.42;;;;;;;-1.76;82.33;101078.89;1743424;82;21152;-66
2023/02/05 07:33:16;;;;;;;7.72;4.12;;;;;;;-1.78;82.36;101080.83;1743424;82;21540;-66
2023/02/05 07:35:47;;;;;;;8.20;4.50;;;;;;;-1.78;82.53;101078.14;1743629;82;21112;-67
2023/02/05 07:38:17;;;;;;;8.48;4.58;;;;;;;-1.78;82.56;101080.83;1743535;82;21551;-67
2023/02/05 07:40:46;;;;;;;8.25;4.67;;;;;;;-1.79;82.69;101080.44;1743602;82;21586;-68
2023/02/05 07:43:15;;;;;;;7.65;4.30;;;;;;;-1.77;82.81;101079.86;1743458;82;21544;-67
2023/02/05 07:45:44;;;;;;;9.13;4.60;;;;;;;-1.73;82.95;101077.83;1743726;82;21516;-67
2023/02/05 07:48:14;;;;;;;9.18;4.58;;;;;;;-1.70;83.02;101077.14;1743712;82;21182;-66
2023/02/05 07:50:44;;;;;;;7.85;4.22;;;;;;;-1.68;82.95;101073.01;1743719;82;21168;-66
2023/02/05 07:53:12;;;;;;;8.25;4.33;;;;;;;-1.66;82.96;101073.77;1743900;82;21144;-67
2023/02/05 07:55:41;;;;;;;8.18;4.47;;;;;;;-1.66;82.96;101080.00;1743793;82;21172;-67
2023/02/05 07:58:11;;;;;;;7.20;3.87;;;;;;;-1.64;83.04;101080.77;1743558;82;21516;-67
2023/02/05 08:00:40;;;;;;;9.38;4.70;;;;;;;-1.62;82.96;101080.17;1743432;82;21528;-68
2023/02/05 08:03:09;;;;;;;7.45;4.42;;;;;;;-1.55;83.07;101094.05;1743517;82;21129;-67
2023/02/05 08:05:39;;;;;;;8.98;4.90;;;;;;;-1.54;82.83;101093.58;1743404;82;21152;-68
2023/02/05 08:08:08;;;;;;;9.20;4.80;;;;;;;-1.49;82.74;101096.33;1743664;82;21535;-68
2023/02/05 08:10:37;;;;;;;8.15;4.22;;;;;;;-1.46;82.62;101097.47;1695382;82;21192;-66
2023/02/05 08:13:07;;;;;;;11.30;4.50;;;;;;;-1.43;82.37;101096.40;1743328;82;21136;-67
2023/02/05 08:15:42;;;;;;;9.23;4.05;;;;;;;-1.41;82.26;101103.88;1743353;82;21621;-67
2023/02/05 08:18:12;;;;;;;6.78;4.08;;;;;;;-1.44;82.14;101102.25;1743673;82;21088;-68
2023/02/05 08:20:43;;;;;;;7.28;4.50;;;;;;;-1.42;82.29;101107.05;1743433;81;21610;-66
2023/02/05 08:23:12;;;;;;;8.13;4.20;;;;;;;-1.42;82.21;101102.16;1743375;82;21243;-67
2023/02/05 08:25:41;;;;;;;7.55;4.00;;;;;;;-1.41;82.34;101106.08;1743388;82;21538;-67
2023/02/05 08:28:09;;;;;;;8.43;4.30;;;;;;;-1.34;82.47;101111.90;1743370;82;21136;-67
2023/02/05 08:30:39;;;;;;;6.55;3.83;;;;;;;-1.32;82.34;101112.17;1743466;82;21084;-69
2023/02/05 08:33:09;;;;;;;7.70;3.87;;;;;;;-1.27;82.29;101121.30;1743461;82;21532;-68
2023/02/05 08:35:38;;;;;;;10.35;4.12;;;;;;;-1.23;82.33;101124.16;1743348;82;21547;-67
2023/02/05 08:38:07;;;;;;;8.38;4.22;;;;;;;-1.18;82.24;101134.12;1743681;82;21647;-68
2023/02/05 08:40:36;;;;;;;7.22;4.00;;;;;;;-1.17;81.96;101127.77;1743567;82;21108;-68
2023/02/05 08:43:07;;;;;;;6.62;3.85;;;;;;;-1.15;81.96;101127.19;1743549;82;21104;-67
2023/02/05 08:45:38;;;;;;;6.95;4.05;;;;;;;-1.11;81.97;101131.87;1743804;82;21128;-67
2023/02/05 08:48:07;;;;;;;9.53;4.37;;;;;;;-1.06;81.90;101132.41;1743371;82;21201;-67
2023/02/05 08:50:36;;;;;;;7.65;4.25;;;;;;;-1.04;81.93;101136.72;1743583;82;21195;-67
2023/02/05 08:53:06;;;;;;;9.03;4.10;;;;;;;-1.02;82.01;101135.27;1743390;82;21093;-67
2023/02/05 08:55:36;;;;;;;6.55;3.90;;;;;;;-1.01;81.83;101137.85;1743603;82;21156;-68
2023/02/05 08:58:05;;;;;;;6.85;3.77;;;;;;;-1.02;81.53;101138.82;1743462;82;21508;-65
2023/02/05 09:00:37;;;;;;;9.13;4.35;;;;;;;-1.04;81.40;101140.75;1743562;82;21225;-67
2023/02/05 09:03:05;;;;;;;6.75;3.98;;;;;;;-1.04;81.53;101143.45;1743311;82;21588;-67
2023/02/05 09:05:35;;;;;;;9.70;4.05;;;;;;;-1.04;81.15;101152.86;1736236;82;21736;-67
2023/02/05 09:08:04;;;;;;;9.50;4.40;;;;;;;-1.05;81.13;101155.17;1743072;82;21096;-67
2023/02/05 09:10:34;;;;;;;9.60;5.25;;;;;;;-1.05;81.33;101147.10;1743253;82;21630;-68
2023/02/05 09:13:04;;;;;;;7.22;3.87;;;;;;;-1.03;81.47;101145.16;1716273;82;21200;-69
2023/02/05 09:15:42;;;;;;;7.10;3.85;;;;;;;-1.00;81.30;101147.64;1711604;84;21122;-69
2023/02/05 09:18:12;;;;;;;6.70;4.20;;;;;;;-0.94;81.84;101141.47;1711621;84;21193;-70
2023/02/05 09:20:46;;;;;;;7.78;4.20;;;;;;;-0.85;81.69;101148.41;1696187;84;21170;-70
2023/02/05 09:23:19;;;;;;;8.08;4.03;;;;;;;-0.81;81.41;101146.38;1693965;85;21186;-68
2023/02/05 09:25:50;;;;;;;7.85;4.30;;;;;;;-0.79;81.29;101146.64;1693860;85;21142;-69
2023/02/05 09:28:19;;;;;;;8.65;4.05;;;;;;;-0.76;80.83;101145.57;1693672;85;21588;-69
2023/02/05 09:30:49;;;;;;;8.10;4.17;;;;;;;-0.76;80.57;101140.19;1693734;85;21185;-69
2023/02/05 09:33:18;;;;;;;6.90;3.92;;;;;;;-0.77;80.43;101139.33;1693768;85;21170;-68
2023/02/05 09:35:47;;;;;;;6.50;3.85;;;;;;;-0.72;80.47;101145.73;1693799;85;21138;-69
2023/02/05 09:38:17;;;;;;;8.60;3.95;;;;;;;-0.68;80.38;101135.98;1693674;85;21566;-69
2023/02/05 09:40:59;;;;;;;7.78;4.33;;;;;;;-0.67;80.04;101128.78;1693782;85;21165;-70
2023/02/05 09:44:09;;;;;;;6.97;3.80;;;;;;;-0.67;80.23;101139.06;1693810;85;21605;-65
2023/02/05 09:46:53;;;;;;;8.78;4.30;;;;;;;-0.62;80.22;101137.91;1724353;83;21154;-65
2023/02/05 09:49:27;;;;;;;6.87;3.72;;;;;;;-0.62;80.13;101137.42;1695046;85;21165;-63
2023/02/05 09:52:05;;;;;;;8.43;4.10;;;;;;;-0.58;80.25;101139.41;1829816;77;22125;-66
2023/02/05 09:54:37;;;;;;;7.90;4.28;;;;;;;-0.60;80.53;101134.63;1724206;83;21146;-68
2023/02/05 09:57:13;;;;;;;7.33;4.22;;;;;;;-0.55;80.65;101145.44;1739839;82;21735;-67
2023/02/05 09:59:44;;;;;;;9.25;4.58;;;;;;;-0.49;80.71;101140.11;1723971;83;21551;-69
2023/02/05 10:02:27;;;;;;;7.58;4.25;;;;;;;-0.47;80.84;101136.82;1739960;82;21124;-67
2023/02/05 10:04:55;;;;;;;8.88;4.30;;;;;;;-0.43;80.99;101139.19;1722911;83;21647;-67
2023/02/05 10:07:42;;;;;;;7.08;3.92;;;;;;;-0.37;81.16;101139.23;1722570;83;21577;-66
2023/02/05 10:10:36;;;;;;;9.58;4.40;;;;;;;-0.36;81.01;101151.72;1739818;82;21119;-67
2023/02/05 10:13:30;;;;;;;8.58;4.05;;;;;;;-0.36;81.02;101149.03;1719472;83;21155;-67
2023/02/05 10:16:22;;;;;;;7.47;4.25;;;;;;;-0.36;80.89;101153.06;1722552;83;21170;-66
2023/02/05 10:19:13;;;;;;;8.58;4.30;;;;;;;-0.42;80.82;101148.98;1722339;83;21143;-66
2023/02/05 10:22:03;;;;;;;8.30;4.20;;;;;;;-0.42;80.94;101159.75;1722709;83;21174;-65
2023/02/05 10:24:49;;;;;;;9.40;4.92;;;;;;;-0.44;81.02;101170.25;1722660;83;21182;-67
2023/02/05 10:27:22;;;;;;;9.45;4.90;;;;;;;-0.43;81.31;101176.88;1722468;83;21122;-66
2023/02/05 10:30:19;;;;;;;9.73;5.12;;;;;;;-0.43;81.20;101170.14;1722657;83;21130;-66
2023/02/05 13:10:27;;;;;;;9.10;4.03;;;;;;;-0.74;88.34;101246.74;1830057;77;24615;-67
2023/02/05 13:13:06;;;;;;;13.22;6.10;;;;;;;-0.78;88.42;101246.57;1788718;80;21851;-68
2023/02/05 13:15:42;;;;;;;12.25;5.97;;;;;;;-0.73;88.51;101251.64;1780114;77;21503;-69
2023/02/05 13:18:23;;;;;;;10.72;5.25;;;;;;;-0.69;88.54;101245.08;1748747;81;21142;-71
2023/02/05 13:29:37;;;;;;;13.43;6.15;;;;;;;-0.55;88.40;101247.72;1740239;82;21178;-71
2023/02/05 13:32:08;;;;;;;12.07;5.40;;;;;;;-0.49;88.39;101261.23;1735438;81;21136;-70
2023/02/05 13:34:39;;;;;;;8.18;4.72;;;;;;;-0.46;88.32;101261.89;1707657;83;21208;-71
2023/02/05 13:37:48;;;;;;;9.95;5.17;;;;;;;-0.44;88.15;101262.64;1720937;83;21128;-71
2023/02/05 13:40:35;;;;;;;9.48;4.85;;;;;;;-0.43;87.95;101263.50;1708258;83;21564;-71
2023/02/05 13:43:28;;;;;;;10.08;4.80;;;;;;;-0.43;87.89;101261.67;1708092;83;21118;-72
2023/02/05 13:46:20;;;;;;;9.78;5.33;;;;;;;-0.43;87.80;101264.37;1720912;83;21201;-71
2023/02/05 13:49:10;;;;;;;10.98;5.15;;;;;;;-0.42;87.75;101263.40;1707877;83;21168;-72
2023/02/05 13:52:08;;;;;;;12.65;5.37;;;;;;;-0.39;87.73;101270.40;1720752;82;21113;-69
2023/02/05 13:54:50;;;;;;;9.93;5.33;;;;;;;-0.39;87.69;101265.88;1708045;83;21093;-71
2023/02/05 13:57:41;;;;;;;10.45;5.22;;;;;;;-0.39;87.68;101273.09;1720662;83;21120;-71
2023/02/05 14:00:11;;;;;;;9.93;4.85;;;;;;;-0.40;87.76;101275.41;1708065;83;21136;-70
2023/02/05 14:02:47;;;;;;;16.07;6.80;;;;;;;-0.39;87.92;101278.48;1720703;83;21622;-71
2023/02/05 14:05:16;;;;;;;13.32;6.08;;;;;;;-0.39;88.19;101280.69;1699991;84;21118;-71
2023/02/05 14:07:48;;;;;;;10.55;5.45;;;;;;;-0.35;88.41;101280.85;1720543;83;21109;-70
2023/02/05 14:10:32;;;;;;;8.65;5.05;;;;;;;-0.30;88.45;101289.09;1707886;83;21248;-71
2023/02/05 14:13:29;;;;;;;9.48;4.97;;;;;;;-0.30;88.39;101291.78;1720920;82;21625;-71
2023/02/05 14:15:56;;;;;;;10.25;4.78;;;;;;;-0.31;88.39;101294.96;1720181;82;21576;-71
2023/02/05 14:18:46;;;;;;;9.68;5.08;;;;;;;-0.30;88.41;101302.07;1712996;82;21097;-70
2023/02/05 14:21:35;;;;;;;11.22;4.92;;;;;;;-0.33;88.43;101300.45;1732615;83;21137;-70
2023/02/05 14:24:39;;;;;;;10.03;4.78;;;;;;;-0.36;88.50;101307.40;1732448;83;21560;-72
2023/02/05 14:27:41;;;;;;;10.58;5.10;;;;;;;-0.38;88.57;101301.25;1732225;83;21156;-71
2023/02/05 14:30:32;;;;;;;8.50;4.80;;;;;;;-0.39;88.68;101306.27;1708219;83;21133;-72
2023/02/05 14:33:38;;;;;;;9.40;4.47;;;;;;;-0.38;88.78;101311.16;1732257;83;21148;-72
2023/02/05 14:36:21;;;;;;;8.85;4.78;;;;;;;-0.41;88.88;101308.20;1732192;83;21125;-72
2023/02/05 14:38:55;;;;;;;8.75;4.70;;;;;;;-0.42;89.09;101310.99;1732136;83;21160;-72
2023/02/05 14:41:31;;;;;;;9.13;4.92;;;;;;;-0.40;89.14;101310.41;1732302;82;21117;-73
2023/02/05 14:44:04;;;;;;;10.70;5.25;;;;;;;-0.40;89.17;101321.17;1732310;83;21671;-71
2023/02/05 14:47:01;;;;;;;10.93;4.83;;;;;;;-0.42;89.14;101323.97;1732260;82;21590;-72
2023/02/05 14:49:38;;;;;;;6.37;3.72;;;;;;;-0.45;89.18;101320.14;1732445;82;21121;-71